Time;durP1;ratioP1;P1;durP2;ratioP2;P2;SDS_P1;SDS_P2;PMS_P1;PMS_P2;Temp;Humidity;BMP_temperature;BMP_pressure;BME280_temperature;BME280_humidity;BME280_pressure;Samples;Min_cycle;Max_cycle;Signal;HPM_P1;HPM_P2
2022/01/04 00:01:05;;;;;;;21.77;8.57;;;8.60;99.90;;;;;;5081566;28;20043;-70
2022/01/04 00:03:31;;;;;;;24.40;8.32;;;8.60;99.90;;;;;;5101344;28;20388;-70
2022/01/04 00:05:56;;;;;;;21.92;7.80;;;8.00;99.90;;;;;;5079452;28;20185;-70
2022/01/04 00:08:23;;;;;;;25.27;9.73;;;8.50;99.90;;;;;;5102092;28;20455;-70
2022/01/04 00:10:49;;;;;;;17.52;7.40;;;8.60;99.90;;;;;;5081186;28;20579;-70
2022/01/04 00:13:24;;;;;;;18.55;7.00;;;8.10;99.90;;;;;;5048865;28;20130;-70
2022/01/04 00:15:52;;;;;;;25.75;8.82;;;8.40;99.90;;;;;;5083147;28;20046;-70
2022/01/04 00:18:18;;;;;;;19.77;7.68;;;8.20;99.90;;;;;;5085690;28;20414;-70
2022/01/04 00:20:45;;;;;;;27.73;8.30;;;8.60;99.90;;;;;;5082159;28;20043;-70
2022/01/04 00:23:11;;;;;;;26.60;6.88;;;8.60;99.90;;;;;;5099865;28;20074;-70
2022/01/04 00:25:37;;;;;;;20.88;6.32;;;8.80;99.90;;;;;;5081420;28;20075;-70
2022/01/04 00:28:07;;;;;;;19.27;6.93;;;8.30;99.90;;;;;;5085562;28;20044;-70
2022/01/04 00:30:36;;;;;;;20.63;7.63;;;8.30;99.90;;;;;;5100624;28;20130;-70
2022/01/04 00:33:03;;;;;;;19.20;6.43;;;8.40;99.90;;;;;;5083822;28;20537;-70
2022/01/04 00:35:29;;;;;;;25.25;7.57;;;;;;;;;;5081896;28;20078;-70
2022/01/04 00:37:57;;;;;;;21.52;6.20;;;;;;;;;;5083306;28;20036;-70
2022/01/04 00:40:24;;;;;;;16.92;5.82;;;;;;;;;;5082939;28;20048;-70
2022/01/04 00:42:50;;;;;;;26.95;6.97;;;8.40;99.90;;;;;;5079958;28;20117;-70
2022/01/04 00:45:15;;;;;;;25.08;6.65;;;8.70;99.90;;;;;;5102400;28;20411;-70
2022/01/04 00:50:31;;;;;;;20.63;6.97;;;8.60;99.90;;;;;;5047296;28;20418;-70
2022/01/04 00:52:58;;;;;;;19.48;6.85;;;8.40;99.90;;;;;;5093865;28;20047;-70
2022/01/04 00:55:24;;;;;;;18.42;6.55;;;8.60;99.90;;;;;;5101726;28;20044;-70
2022/01/04 00:57:50;;;;;;;20.75;6.32;;;8.30;99.90;;;;;;5102465;28;20031;-70
2022/01/04 01:00:18;;;;;;;21.42;6.50;;;8.60;99.90;;;;;;5082958;28;20506;-70
2022/01/04 01:02:44;;;;;;;23.65;7.40;;;8.30;99.90;;;;;;5081592;28;20044;-70
2022/01/04 01:05:11;;;;;;;22.50;6.30;;;8.30;99.90;;;;;;5081852;28;20044;-70
2022/01/04 01:07:37;;;;;;;20.75;7.05;;;8.20;99.90;;;;;;5100768;28;20109;-70
2022/01/04 01:12:30;;;;;;;21.50;6.90;;;8.20;99.90;;;;;;5101499;28;20048;-70
2022/01/04 01:14:56;;;;;;;17.00;7.22;;;8.10;99.90;;;;;;5082589;28;20048;-70
2022/01/04 01:17:22;;;;;;;22.85;7.18;;;8.50;99.90;;;;;;5083205;28;21838;-70
2022/01/04 01:19:48;;;;;;;26.42;7.45;;;8.20;99.90;;;;;;5082532;28;20047;-70
2022/01/04 01:22:13;;;;;;;22.35;6.75;;;8.60;99.90;;;;;;5101789;28;20460;-70
2022/01/04 01:24:39;;;;;;;24.15;7.72;;;8.30;99.90;;;;;;5081391;28;20059;-70
2022/01/04 01:27:05;;;;;;;18.58;7.03;;;8.20;99.90;;;;;;5065949;28;20040;-70
2022/01/04 01:29:30;;;;;;;24.08;7.65;;;8.10;99.90;;;;;;5081933;28;20044;-70
2022/01/04 01:31:56;;;;;;;34.75;9.40;;;8.20;99.90;;;;;;5101446;28;20036;-70
2022/01/04 01:34:23;;;;;;;21.15;7.70;;;8.40;99.90;;;;;;5081503;28;20043;-70
2022/01/04 01:36:49;;;;;;;19.33;7.22;;;8.50;99.90;;;;;;5083952;28;20046;-70
2022/01/04 01:39:15;;;;;;;28.15;7.47;;;8.50;99.90;;;;;;5081546;28;20067;-70
2022/01/04 01:41:41;;;;;;;21.92;7.93;;;8.10;99.90;;;;;;5084380;28;20416;-70
2022/01/04 01:44:07;;;;;;;20.25;7.40;;;8.40;99.90;;;;;;5100866;28;20055;-70
2022/01/04 01:46:33;;;;;;;25.92;8.63;;;8.10;99.90;;;;;;5081556;28;20047;-70
2022/01/04 01:48:58;;;;;;;22.25;7.15;;;8.30;99.90;;;;;;5084502;28;20128;-70
2022/01/04 01:51:28;;;;;;;20.92;8.05;;;8.00;99.90;;;;;;5085576;28;20411;-70
2022/01/04 01:53:54;;;;;;;24.23;8.20;;;8.00;99.90;;;;;;5086367;28;20096;-70
2022/01/04 01:56:20;;;;;;;22.15;9.25;;;8.40;99.90;;;;;;5085734;28;20040;-70
2022/01/04 01:58:46;;;;;;;25.48;8.60;;;8.30;99.90;;;;;;5086440;28;20039;-70
2022/01/04 02:01:12;;;;;;;19.10;8.25;;;8.30;99.90;;;;;;5084159;28;20399;-70
2022/01/04 02:03:38;;;;;;;20.80;8.25;;;7.90;99.90;;;;;;5102770;28;20030;-70
2022/01/04 02:06:04;;;;;;;22.10;7.78;;;8.00;99.90;;;;;;5084901;28;20479;-70
2022/01/04 02:08:30;;;;;;;19.50;7.78;;;8.00;99.90;;;;;;5069023;28;20043;-70
2022/01/04 02:10:57;;;;;;;23.08;8.75;;;8.20;99.90;;;;;;5085383;28;20043;-70
2022/01/04 02:13:24;;;;;;;28.33;7.97;;;8.20;99.90;;;;;;5086063;28;20059;-70
2022/01/04 02:15:51;;;;;;;20.45;9.25;;;8.40;99.90;;;;;;5084647;28;20071;-70
2022/01/04 02:18:17;;;;;;;21.50;9.48;;;8.00;99.90;;;;;;5086927;28;20403;-70
2022/01/04 02:20:43;;;;;;;26.13;8.82;;;7.90;99.90;;;;;;5086788;28;20044;-70
2022/01/04 02:23:09;;;;;;;30.27;10.45;;;8.00;99.90;;;;;;5103879;28;20054;-70
2022/01/04 02:25:35;;;;;;;29.67;8.65;;;8.80;99.90;;;;;;5084651;28;20051;-70
2022/01/04 02:28:01;;;;;;;26.98;9.75;;;8.30;99.90;;;;;;5084935;28;20054;-70
2022/01/04 02:30:27;;;;;;;26.77;10.18;;;8.00;99.90;;;;;;5084311;28;20051;-70
2022/01/04 02:32:53;;;;;;;23.95;8.63;;;8.20;99.90;;;;;;5068327;28;20027;-70
2022/01/04 02:35:23;;;;;;;31.10;11.80;;;8.20;99.90;;;;;;5102431;28;20495;-70
2022/01/04 02:37:51;;;;;;;25.52;9.93;;;8.10;99.90;;;;;;5064816;28;20520;-70
2022/01/04 02:40:17;;;;;;;25.15;9.30;;;8.10;99.90;;;;;;5105730;28;20056;-70
2022/01/04 02:42:43;;;;;;;29.10;9.30;;;8.80;99.90;;;;;;5104826;28;20035;-70
2022/01/04 02:45:10;;;;;;;34.25;10.00;;;8.50;99.90;;;;;;5076609;28;20055;-70
2022/01/04 02:47:36;;;;;;;22.92;9.57;;;8.00;99.90;;;;;;5084890;28;20036;-70
2022/01/04 02:50:02;;;;;;;26.27;10.00;;;8.30;99.90;;;;;;5087511;28;20039;-70
2022/01/04 02:52:28;;;;;;;29.30;10.85;;;8.00;99.90;;;;;;5103945;28;20089;-70
2022/01/04 02:54:54;;;;;;;26.67;9.60;;;8.20;99.90;;;;;;5084701;28;20476;-70
2022/01/04 02:57:20;;;;;;;33.42;9.63;;;8.10;99.90;;;;;;5084202;28;20114;-70
2022/01/04 02:59:46;;;;;;;22.83;8.93;;;8.10;99.90;;;;;;5085196;28;20040;-70
2022/01/04 03:02:11;;;;;;;25.67;9.07;;;8.10;99.90;;;;;;5086867;28;20111;-70
2022/01/04 03:04:37;;;;;;;19.52;9.90;;;8.40;99.90;;;;;;5101910;28;20050;-70
2022/01/04 03:07:03;;;;;;;26.08;9.98;;;8.10;99.90;;;;;;5101971;28;20104;-70
2022/01/04 03:09:29;;;;;;;31.30;11.20;;;8.00;99.90;;;;;;5083789;28;20089;-70
2022/01/04 03:11:55;;;;;;;25.45;10.02;;;8.00;99.90;;;;;;5084761;28;20458;-70
2022/01/04 03:14:20;;;;;;;25.17;9.93;;;8.40;99.90;;;;;;5085723;28;20044;-70
2022/01/04 03:16:46;;;;;;;19.83;9.88;;;8.90;99.90;;;;;;5069282;28;20396;-70
2022/01/04 03:19:12;;;;;;;24.40;9.95;;;7.90;99.90;;;;;;5084318;28;20092;-70
2022/01/04 03:21:40;;;;;;;26.38;9.73;;;8.30;99.90;;;;;;5100829;28;20092;-70
2022/01/04 03:24:11;;;;;;;26.38;9.98;;;8.90;99.90;;;;;;5083122;28;20039;-70
2022/01/04 03:26:37;;;;;;;28.40;9.75;;;8.30;99.90;;;;;;5083481;28;20058;-70
2022/01/04 03:29:05;;;;;;;20.10;8.88;;;8.00;99.90;;;;;;5066083;28;20049;-70
2022/01/04 03:31:31;;;;;;;28.70;9.43;;;8.40;99.90;;;;;;5101998;28;20043;-70
2022/01/04 03:33:57;;;;;;;28.90;9.90;;;8.30;99.90;;;;;;5101823;28;20295;-70
2022/01/04 03:36:24;;;;;;;21.17;9.60;;;8.40;99.90;;;;;;5101723;28;20036;-70
2022/01/04 03:38:52;;;;;;;25.27;11.00;;;8.40;99.90;;;;;;5083540;28;20051;-70
2022/01/04 03:41:18;;;;;;;26.02;10.95;;;8.00;99.90;;;;;;5083764;28;20051;-70
2022/01/04 03:43:44;;;;;;;31.73;10.40;;;8.20;99.90;;;;;;5083650;28;20051;-70
2022/01/04 03:46:10;;;;;;;26.65;10.93;;;8.20;99.90;;;;;;5102902;28;20612;-70
2022/01/04 03:48:37;;;;;;;28.45;11.90;;;8.10;99.90;;;;;;5098955;28;20043;-70
2022/01/04 03:51:04;;;;;;;29.70;13.25;;;8.00;99.90;;;;;;5085100;28;20376;-70
2022/01/04 03:53:30;;;;;;;24.50;12.15;;;8.20;99.90;;;;;;5102179;28;20064;-70
2022/01/04 03:55:56;;;;;;;30.55;12.52;;;8.30;99.90;;;;;;5101011;28;20039;-70
2022/01/04 03:58:22;;;;;;;30.40;13.15;;;8.20;99.90;;;;;;5082860;28;20376;-70
2022/01/04 04:00:48;;;;;;;38.47;12.95;;;8.40;99.90;;;;;;5099345;28;20430;-70
2022/01/04 04:03:14;;;;;;;33.53;12.20;;;7.80;99.90;;;;;;5094182;28;20066;-70
2022/01/04 04:05:40;;;;;;;25.75;11.88;;;8.40;99.90;;;;;;5078870;28;20101;-70
2022/01/04 04:08:05;;;;;;;32.17;13.43;;;8.20;99.90;;;;;;5096601;28;20052;-70
2022/01/04 04:10:31;;;;;;;24.45;11.60;;;8.30;99.90;;;;;;5081856;28;20047;-70
2022/01/04 04:12:57;;;;;;;26.08;12.20;;;8.30;99.90;;;;;;5101699;28;20051;-70
2022/01/04 04:15:22;;;;;;;31.17;13.65;;;8.20;99.90;;;;;;5082384;28;21693;-69
2022/01/04 04:17:48;;;;;;;29.42;12.90;;;7.80;99.90;;;;;;5087051;28;20075;-69
2022/01/04 04:20:14;;;;;;;28.13;12.75;;;8.20;99.90;;;;;;5063141;28;20027;-69
2022/01/04 04:22:40;;;;;;;33.08;13.70;;;8.10;99.90;;;;;;5083460;28;20050;-69
2022/01/04 04:25:07;;;;;;;24.20;11.10;;;7.90;99.90;;;;;;5066734;28;20049;-69
2022/01/04 04:27:32;;;;;;;28.92;13.30;;;8.10;99.90;;;;;;5082754;28;20783;-69
2022/01/04 04:29:58;;;;;;;28.13;12.82;;;8.20;99.90;;;;;;5082914;28;20050;-69
2022/01/04 04:32:24;;;;;;;28.27;11.75;;;7.90;99.90;;;;;;5083722;28;20043;-69
2022/01/04 04:34:50;;;;;;;24.50;11.98;;;8.60;99.90;;;;;;5101979;28;20066;-69
2022/01/04 04:37:16;;;;;;;30.77;12.25;;;8.00;99.90;;;;;;5083395;28;20038;-69
2022/01/04 04:39:42;;;;;;;33.03;12.77;;;8.20;99.90;;;;;;5083314;28;20088;-70
2022/01/04 04:42:08;;;;;;;23.92;12.40;;;8.30;99.90;;;;;;5082619;28;20046;-70
2022/01/04 04:44:34;;;;;;;31.75;13.30;;;8.10;99.90;;;;;;5103059;28;20053;-69
2022/01/04 04:46:59;;;;;;;35.95;13.57;;;8.50;99.90;;;;;;5081603;28;20249;-69
2022/01/04 04:49:25;;;;;;;27.75;13.25;;;8.40;99.90;;;;;;5102755;28;20036;-69
2022/01/04 04:51:51;;;;;;;29.05;14.07;;;8.30;99.90;;;;;;5081183;28;20051;-69
2022/01/04 04:54:17;;;;;;;29.77;14.25;;;8.10;99.90;;;;;;5083003;28;20040;-69
2022/01/04 04:56:43;;;;;;;28.50;13.95;;;8.50;99.90;;;;;;5102658;28;20044;-69
2022/01/04 04:59:09;;;;;;;31.40;12.85;;;8.40;99.90;;;;;;5082425;28;20067;-70
2022/01/04 05:01:36;;;;;;;28.95;13.30;;;8.30;99.90;;;;;;5087357;28;20044;-69
2022/01/04 05:04:02;;;;;;;29.38;12.95;;;8.30;99.90;;;;;;5105571;28;20054;-69
2022/01/04 05:06:28;;;;;;;26.10;13.02;;;8.10;99.90;;;;;;5098682;28;20118;-69
2022/01/04 05:08:54;;;;;;;22.77;13.23;;;8.30;99.90;;;;;;5102690;28;20106;-69
2022/01/04 05:11:20;;;;;;;29.13;12.32;;;8.30;99.90;;;;;;5087119;28;20041;-70
2022/01/04 05:13:46;;;;;;;24.92;12.23;;;8.50;99.90;;;;;;5087115;28;20384;-69
2022/01/04 05:16:11;;;;;;;30.92;13.20;;;8.20;99.90;;;;;;5106433;28;20043;-69
2022/01/04 05:18:38;;;;;;;36.75;15.50;;;8.10;99.90;;;;;;5083384;28;20044;-69
2022/01/04 05:21:04;;;;;;;28.80;13.68;;;7.90;99.90;;;;;;5082547;28;20047;-69
2022/01/04 05:23:30;;;;;;;29.98;13.27;;;8.20;99.90;;;;;;5083494;28;20427;-70
2022/01/04 05:25:56;;;;;;;30.33;13.45;;;8.10;99.90;;;;;;5101336;28;20126;-69
2022/01/04 05:28:22;;;;;;;33.28;14.35;;;8.30;99.90;;;;;;5087831;28;20115;-69
2022/01/04 05:30:48;;;;;;;28.85;14.55;;;8.60;99.90;;;;;;5085001;28;20080;-69
2022/01/04 05:33:14;;;;;;;34.63;14.90;;;8.30;99.90;;;;;;5103583;28;20032;-69
2022/01/04 05:35:39;;;;;;;31.45;14.70;;;8.50;99.90;;;;;;5086929;28;20044;-69
2022/01/04 05:38:05;;;;;;;29.80;15.02;;;8.70;99.90;;;;;;5105556;28;20035;-70
2022/01/04 05:40:31;;;;;;;33.25;15.07;;;8.30;99.90;;;;;;5085482;28;20063;-70
2022/01/04 05:42:57;;;;;;;30.63;15.98;;;8.80;99.90;;;;;;5103918;28;20040;-69
2022/01/04 05:45:24;;;;;;;34.03;15.90;;;7.90;99.90;;;;;;5084878;28;20043;-69
2022/01/04 05:47:49;;;;;;;31.30;15.43;;;8.30;99.90;;;;;;5105454;27;20860;-69
2022/01/04 05:50:15;;;;;;;36.20;15.90;;;7.90;99.90;;;;;;5086649;28;20051;-69
2022/01/04 05:52:41;;;;;;;31.35;14.52;;;7.90;99.90;;;;;;5084046;28;20042;-69
2022/01/04 05:55:07;;;;;;;25.27;14.25;;;8.10;99.90;;;;;;5085500;28;20078;-69
2022/01/04 05:57:33;;;;;;;28.25;13.40;;;8.00;99.90;;;;;;5086370;28;20495;-69
2022/01/04 05:59:59;;;;;;;34.10;15.60;;;8.40;99.90;;;;;;5068820;28;20104;-70
2022/01/04 06:02:25;;;;;;;32.85;14.55;;;8.00;99.90;;;;;;5104100;28;20043;-69
2022/01/04 06:04:52;;;;;;;26.00;13.82;;;8.40;99.90;;;;;;5070433;28;20035;-69
2022/01/04 06:07:18;;;;;;;23.90;13.30;;;8.10;99.90;;;;;;5087053;28;20755;-69
2022/01/04 06:09:47;;;;;;;26.00;13.90;;;8.00;99.90;;;;;;5087810;28;20120;-69
2022/01/04 06:15:05;;;;;;;23.77;14.35;;;8.40;99.90;;;;;;5104053;28;20401;-69
2022/01/04 06:17:38;;;;;;;28.88;13.35;;;8.30;99.90;;;;;;5071586;28;20039;-69
2022/01/04 06:20:12;;;;;;;26.65;13.80;;;8.30;99.90;;;;;;5087888;28;20403;-69
2022/01/04 06:22:39;;;;;;;30.38;14.27;;;8.10;99.90;;;;;;5110457;28;20582;-69
2022/01/04 06:25:06;;;;;;;30.77;14.88;;;8.20;99.90;;;;;;5070876;28;20043;-69
2022/01/04 06:27:32;;;;;;;29.13;14.88;;;8.00;99.90;;;;;;5085026;28;20105;-70
2022/01/04 06:29:59;;;;;;;22.23;12.57;;;8.30;99.90;;;;;;5089788;28;20348;-70
2022/01/04 06:32:24;;;;;;;31.45;15.13;;;8.40;99.90;;;;;;5087622;28;20082;-70
2022/01/04 06:34:50;;;;;;;33.33;15.50;;;8.30;99.90;;;;;;5084581;28;20462;-70
2022/01/04 06:37:17;;;;;;;31.10;14.93;;;8.10;99.90;;;;;;5090793;28;20310;-70
2022/01/04 06:39:43;;;;;;;28.80;14.02;;;8.30;99.90;;;;;;5088422;28;21654;-70
2022/01/04 06:42:11;;;;;;;30.10;14.80;;;8.10;99.90;;;;;;5082496;28;20113;-70
2022/01/04 06:44:37;;;;;;;32.03;15.05;;;8.40;99.90;;;;;;5090127;28;20077;-69
2022/01/04 06:47:03;;;;;;;29.10;15.00;;;8.30;99.90;;;;;;5086118;28;20150;-70
2022/01/04 06:49:29;;;;;;;27.95;15.52;;;8.00;99.90;;;;;;5106407;28;20421;-70
2022/01/04 06:51:55;;;;;;;34.17;14.57;;;7.80;99.90;;;;;;5083782;28;20055;-70
2022/01/04 06:54:21;;;;;;;27.25;13.57;;;8.40;99.90;;;;;;5084575;27;20036;-69
2022/01/04 06:56:48;;;;;;;28.80;13.70;;;8.10;99.90;;;;;;5079147;28;20047;-69
2022/01/04 06:59:14;;;;;;;29.20;13.65;;;8.40;99.90;;;;;;5106001;28;20070;-70
2022/01/04 07:01:40;;;;;;;26.67;13.23;;;8.00;99.90;;;;;;5087376;28;20092;-70
2022/01/04 07:04:06;;;;;;;27.55;13.50;;;8.00;99.90;;;;;;5084351;28;20456;-69
2022/01/04 07:06:32;;;;;;;27.30;12.85;;;8.20;99.90;;;;;;5105554;28;20331;-70
2022/01/04 07:08:58;;;;;;;28.25;13.23;;;8.00;99.90;;;;;;5079869;28;20039;-70
2022/01/04 07:11:24;;;;;;;21.27;12.63;;;8.30;99.90;;;;;;5075936;28;20039;-70
2022/01/04 07:13:50;;;;;;;23.20;13.45;;;8.30;99.90;;;;;;5087150;28;20122;-70
2022/01/04 07:16:16;;;;;;;26.35;14.32;;;8.00;99.90;;;;;;5083529;28;20040;-70
2022/01/04 07:18:46;;;;;;;22.10;12.82;;;7.90;99.90;;;;;;5101429;28;20100;-70
2022/01/04 07:21:13;;;;;;;25.52;13.60;;;8.10;99.90;;;;;;5097496;28;20044;-70
2022/01/04 07:23:39;;;;;;;25.08;14.27;;;7.90;99.90;;;;;;5090450;28;20047;-70
2022/01/04 07:26:05;;;;;;;25.63;14.45;;;8.30;99.90;;;;;;5089596;28;20488;-70
2022/01/04 07:28:31;;;;;;;27.20;14.07;;;8.10;99.90;;;;;;5087816;28;20035;-70
2022/01/04 07:30:57;;;;;;;32.17;13.82;;;7.90;99.90;;;;;;5104089;28;20107;-70
2022/01/04 07:33:23;;;;;;;28.20;14.65;;;7.70;99.90;;;;;;5076499;28;20044;-70
2022/01/04 07:35:49;;;;;;;24.70;14.20;;;7.90;99.90;;;;;;5090662;28;20046;-70
2022/01/04 07:38:15;;;;;;;29.88;15.30;;;8.10;99.90;;;;;;5088344;28;20048;-70
2022/01/04 07:40:40;;;;;;;26.80;15.52;;;8.10;99.90;;;;;;5107119;28;20066;-70
2022/01/04 07:43:06;;;;;;;28.83;17.52;;;8.10;99.90;;;;;;5080501;28;20061;-70
2022/01/04 07:45:34;;;;;;;34.70;18.15;;;7.80;99.90;;;;;;5087063;28;20037;-70
2022/01/04 07:48:01;;;;;;;31.92;16.77;;;8.10;99.90;;;;;;5084126;28;20043;-70
2022/01/04 07:50:27;;;;;;;29.05;16.92;;;7.80;99.90;;;;;;5084901;28;20071;-70
2022/01/04 07:52:53;;;;;;;28.83;17.52;;;8.20;99.90;;;;;;5106093;28;20039;-68
2022/01/04 07:55:19;;;;;;;31.60;16.63;;;8.20;99.90;;;;;;5085758;28;20156;-69
2022/01/04 07:57:45;;;;;;;25.30;16.10;;;8.30;99.90;;;;;;5099161;28;20102;-69
2022/01/04 08:00:15;;;;;;;32.67;15.63;;;8.20;99.90;;;;;;5067980;28;20047;-69
2022/01/04 08:02:44;;;;;;;28.98;15.35;;;7.90;99.90;;;;;;5089718;28;20054;-69
2022/01/04 08:05:11;;;;;;;23.55;15.50;;;7.80;99.90;;;;;;5069798;28;20044;-70
2022/01/04 08:07:37;;;;;;;27.48;14.13;;;7.90;99.90;;;;;;5089782;28;20043;-70
2022/01/04 08:10:04;;;;;;;28.70;13.70;;;8.30;99.90;;;;;;5081734;28;20495;-70
2022/01/04 08:12:30;;;;;;;20.73;13.50;;;7.90;99.90;;;;;;5089183;28;20127;-70
2022/01/04 08:14:56;;;;;;;25.33;14.10;;;7.80;99.90;;;;;;5106069;28;20134;-70
2022/01/04 08:17:22;;;;;;;31.55;15.55;;;8.30;99.90;;;;;;5083740;28;20036;-70
2022/01/04 08:19:50;;;;;;;24.65;15.30;;;7.90;99.90;;;;;;5083191;28;20399;-70
2022/01/04 08:22:15;;;;;;;20.55;13.75;;;8.30;99.90;;;;;;5082270;28;20043;-70
2022/01/04 08:24:41;;;;;;;28.85;16.55;;;7.90;99.90;;;;;;5069954;28;20043;-70
2022/01/04 08:27:07;;;;;;;29.55;16.60;;;8.00;99.90;;;;;;5086537;28;20072;-69
2022/01/04 08:29:33;;;;;;;30.52;17.05;;;8.00;99.90;;;;;;5071196;28;20038;-70
2022/01/04 08:31:59;;;;;;;32.08;17.73;;;8.10;99.90;;;;;;5077576;28;20081;-69
2022/01/04 08:34:25;;;;;;;31.95;16.98;;;8.20;99.90;;;;;;5108330;27;20049;-70
2022/01/04 08:36:51;;;;;;;30.30;16.05;;;7.90;99.90;;;;;;5069870;28;20146;-68
2022/01/04 08:39:16;;;;;;;34.10;16.13;;;8.40;99.90;;;;;;5079311;28;20648;-69
2022/01/04 08:41:45;;;;;;;28.00;16.85;;;8.20;99.90;;;;;;5079467;28;20052;-69
2022/01/04 08:44:11;;;;;;;32.70;18.40;;;8.20;99.90;;;;;;5080842;28;20036;-70
2022/01/04 08:46:37;;;;;;;29.67;15.88;;;7.80;99.90;;;;;;5079123;28;20049;-70
2022/01/04 08:49:07;;;;;;;15.57;9.10;;;7.80;99.90;;;;;;5065331;28;20310;-70
2022/01/04 08:51:34;;;;;;;11.15;6.00;;;7.60;99.90;;;;;;5083642;28;20048;-70
2022/01/04 08:54:00;;;;;;;13.60;5.40;;;7.70;99.90;;;;;;5078266;28;20472;-70
2022/01/04 08:56:26;;;;;;;9.60;5.10;;;7.50;99.90;;;;;;5062915;28;20356;-69
2022/01/04 08:58:53;;;;;;;10.75;6.68;;;8.10;99.90;;;;;;5082031;28;20044;-70
2022/01/04 09:01:19;;;;;;;14.30;7.15;;;7.90;99.90;;;;;;5081920;28;20138;-69
2022/01/04 09:03:44;;;;;;;12.70;7.57;;;7.30;99.90;;;;;;5099736;28;20143;-69
2022/01/04 09:06:13;;;;;;;17.80;9.57;;;;;;;;;;5080062;28;20691;-70
2022/01/04 09:08:39;;;;;;;18.60;10.48;;;;;;;;;;5083115;28;20484;-70
2022/01/04 09:11:05;;;;;;;21.42;11.50;;;;;;;;;;5078228;28;20074;-70
2022/01/04 09:13:37;;;;;;;27.83;13.27;;;;;;;;;;5083576;28;20036;-70
2022/01/04 09:18:49;;;;;;;26.63;13.57;;;;;;;;;;5082538;28;20099;-69
2022/01/04 09:21:19;;;;;;;25.10;12.27;;;7.40;99.90;;;;;;5081336;28;20064;-69
2022/01/04 09:23:46;;;;;;;19.58;11.13;;;7.60;99.90;;;;;;5080144;28;20081;-69
2022/01/04 09:26:14;;;;;;;19.80;9.98;;;7.70;99.90;;;;;;5083786;28;20051;-70
2022/01/04 09:28:40;;;;;;;17.60;8.52;;;7.70;99.90;;;;;;5081673;28;20038;-69
2022/01/04 09:31:06;;;;;;;21.60;10.73;;;7.70;99.90;;;;;;5081128;28;20040;-69
2022/01/04 09:33:32;;;;;;;14.10;6.95;;;7.80;99.90;;;;;;5083393;28;20487;-69
2022/01/04 09:35:59;;;;;;;14.40;5.30;;;7.90;99.90;;;;;;5083012;28;20482;-69
2022/01/04 09:38:25;;;;;;;12.40;4.63;;;7.40;99.90;;;;;;5082934;28;20082;-70
2022/01/04 09:40:51;;;;;;;10.27;4.00;;;7.70;99.90;;;;;;5081376;28;20055;-70
2022/01/04 09:43:17;;;;;;;14.30;4.32;;;7.70;99.90;;;;;;5070887;28;20064;-69
2022/01/04 09:45:43;;;;;;;14.95;3.92;;;7.30;99.90;;;;;;5082245;28;20563;-69
2022/01/04 09:48:09;;;;;;;10.60;3.88;;;7.60;99.90;;;;;;5060395;28;20043;-69
2022/01/04 09:50:39;;;;;;;11.40;3.25;;;7.30;99.90;;;;;;5086159;28;20044;-69
2022/01/04 09:53:09;;;;;;;12.05;3.60;;;7.70;99.90;;;;;;5085171;28;20453;-69
2022/01/04 09:55:38;;;;;;;15.43;3.75;;;8.30;99.90;;;;;;5080937;28;20056;-69
2022/01/04 09:58:04;;;;;;;12.85;4.15;;;7.20;99.90;;;;;;5085901;28;20471;-70
2022/01/04 10:00:31;;;;;;;12.02;4.20;;;7.30;99.90;;;;;;5083715;28;20040;-69
2022/01/04 10:03:18;;;;;;;18.88;4.25;;;7.80;99.90;;;;;;5081175;28;20036;-69
2022/01/04 10:05:44;;;;;;;13.82;2.17;;;7.40;99.90;;;;;;5073756;28;20410;-70
2022/01/04 10:08:11;;;;;;;6.75;2.13;;;7.40;99.90;;;;;;5085064;28;20101;-70
2022/01/04 10:10:38;;;;;;;6.65;1.80;;;;;;;;;;5096405;28;20103;-69
2022/01/04 10:13:09;;;;;;;5.55;1.70;;;7.30;99.90;;;;;;5091424;28;20042;-69
2022/01/04 10:15:42;;;;;;;12.23;3.42;;;7.60;99.90;;;;;;5089004;28;20480;-69
2022/01/04 10:18:14;;;;;;;5.57;1.27;;;;;;;;;;5073110;28;20119;-69
2022/01/04 10:20:52;;;;;;;7.05;1.45;;;7.10;99.90;;;;;;5087881;28;20051;-69
2022/01/04 10:23:23;;;;;;;7.30;1.45;;;7.20;99.90;;;;;;5078846;28;20396;-69
2022/01/04 10:26:00;;;;;;;3.78;0.98;;;7.40;99.90;;;;;;5084717;28;20059;-70
2022/01/04 10:28:32;;;;;;;7.43;1.80;;;7.10;99.90;;;;;;5087433;28;20389;-70
2022/01/04 10:31:09;;;;;;;7.30;1.63;;;7.60;99.90;;;;;;5088706;28;20065;-70
2022/01/04 10:33:36;;;;;;;5.28;1.30;;;7.50;99.90;;;;;;5086518;28;20093;-70
2022/01/04 10:36:11;;;;;;;5.60;1.55;;;7.90;99.90;;;;;;5081526;28;20051;-69
2022/01/04 10:38:42;;;;;;;6.63;1.40;;;7.00;99.90;;;;;;5082287;28;20490;-69
2022/01/04 10:41:08;;;;;;;;;;;;;;;;;;5102965;28;20052;-69
2022/01/04 10:43:39;;;;;;;4.10;1.90;;;;;;;;;;5075011;27;20302;-69
2022/01/04 10:46:05;;;;;;;;;;;;;;;;;;5085899;28;20610;-69
2022/01/04 10:48:33;;;;;;;5.07;1.52;;;;;;;;;;5085002;28;19924;-69
2022/01/04 10:51:05;;;;;;;6.63;1.70;;;;;;;;;;5101014;27;20047;-69
2022/01/04 10:53:35;;;;;;;5.80;1.50;;;;;;;;;;5092213;28;20057;-69
2022/01/04 10:56:05;;;;;;;4.93;1.50;;;;;;;;;;5107157;28;20039;-69
2022/01/04 10:58:33;;;;;;;5.73;1.20;;;;;;;;;;5105719;27;20457;-70
2022/01/04 11:01:01;;;;;;;6.70;1.00;;;;;;;;;;5105217;28;20446;-69
2022/01/04 11:03:29;;;;;;;4.32;1.00;;;;;;;;;;5076094;27;20046;-69
2022/01/04 11:05:58;;;;;;;6.95;2.08;;;6.60;99.90;;;;;;5081433;28;20126;-69
2022/01/04 11:08:23;;;;;;;4.57;1.20;;;6.60;99.90;;;;;;5103308;27;20112;-70
2022/01/04 11:10:50;;;;;;;4.53;1.60;;;6.50;99.90;;;;;;5084520;28;20039;-70
2022/01/04 11:13:16;;;;;;;5.15;1.38;;;6.80;99.90;;;;;;5066954;28;20040;-69
2022/01/04 11:15:42;;;;;;;8.02;2.05;;;6.70;99.90;;;;;;5089266;28;20143;-69
2022/01/04 11:18:08;;;;;;;5.78;0.90;;;7.10;99.90;;;;;;5101755;27;20036;-69
2022/01/04 11:20:38;;;;;;;3.08;0.82;;;6.20;99.90;;;;;;5102434;28;20035;-69
2022/01/04 11:23:05;;;;;;;8.07;0.93;;;6.30;99.90;;;;;;5091222;28;20044;-69
2022/01/04 11:25:31;;;;;;;3.72;1.00;;;6.80;99.90;;;;;;5081765;28;20519;-70
2022/01/04 11:27:57;;;;;;;6.05;1.00;;;;;;;;;;5067128;28;20044;-70
2022/01/04 11:30:27;;;;;;;5.15;0.82;;;;;;;;;;5082185;28;20042;-70
2022/01/04 11:32:56;;;;;;;4.72;0.93;;;;;;;;;;5104417;28;20096;-70
2022/01/04 11:35:24;;;;;;;3.85;1.40;;;6.10;99.90;;;;;;5105786;28;20039;-70
2022/01/04 11:37:58;;;;;;;1.88;0.63;;;6.10;99.90;;;;;;5074409;28;20047;-70
2022/01/04 11:40:34;;;;;;;3.85;0.90;;;6.00;99.90;;;;;;5084594;28;20035;-70
2022/01/04 11:43:01;;;;;;;4.65;1.08;;;6.10;99.90;;;;;;5057131;28;20044;-70
2022/01/04 11:45:45;;;;;;;3.22;0.95;;;;;;;;;;5071118;28;20059;-69
2022/01/04 11:48:24;;;;;;;4.68;0.98;;;;;;;;;;5066977;28;20098;-70
2022/01/04 11:50:50;;;;;;;3.53;1.00;;;;;;;;;;5059101;28;20047;-70
2022/01/04 11:53:16;;;;;;;7.18;1.30;;;;;;;;;;5059719;28;20048;-69
2022/01/04 11:55:50;;;;;;;6.18;0.85;;;;;;;;;;5067465;28;20084;-70
2022/01/04 11:58:18;;;;;;;6.47;0.85;;;6.20;99.90;;;;;;5057712;28;20097;-70
2022/01/04 12:01:04;;;;;;;5.80;1.08;;;6.10;99.90;;;;;;5066519;28;20070;-70
2022/01/04 12:03:38;;;;;;;3.33;0.90;;;6.20;99.90;;;;;;5059345;28;20167;-71
2022/01/04 12:06:05;;;;;;;2.92;0.70;;;6.00;99.90;;;;;;5061889;28;20102;-70
2022/01/04 12:08:34;;;;;;;3.80;0.40;;;6.00;99.90;;;;;;5062753;28;20048;-70
2022/01/04 12:11:00;;;;;;;2.05;0.40;;;6.00;99.90;;;;;;5068749;28;20055;-70
2022/01/04 12:13:47;;;;;;;1.88;0.60;;;6.10;99.90;;;;;;5067108;28;20476;-70
2022/01/04 12:16:13;;;;;;;6.82;0.90;;;5.90;99.90;;;;;;5065110;28;21532;-70
2022/01/04 12:18:38;;;;;;;4.03;0.80;;;5.80;99.90;;;;;;5065760;28;20107;-70
2022/01/04 12:21:20;;;;;;;3.63;0.60;;;5.50;99.90;;;;;;5064680;28;20128;-70
2022/01/04 12:23:48;;;;;;;3.33;0.70;;;5.40;99.90;;;;;;5063170;28;20054;-70
2022/01/04 12:26:16;;;;;;;2.28;0.80;;;5.30;99.90;;;;;;5066333;28;20051;-70
2022/01/04 12:28:43;;;;;;;4.43;0.88;;;5.40;99.90;;;;;;5062580;28;20102;-70
2022/01/04 12:31:18;;;;;;;2.72;0.60;;;5.40;99.90;;;;;;5063700;28;20080;-70
2022/01/04 12:34:05;;;;;;;7.30;1.10;;;5.40;99.90;;;;;;5067183;28;20110;-70
2022/01/04 12:36:34;;;;;;;3.28;0.77;;;5.50;99.90;;;;;;5061945;28;20037;-70
2022/01/04 12:39:02;;;;;;;4.95;0.85;;;5.50;99.90;;;;;;5055824;28;20408;-70
2022/01/04 12:41:30;;;;;;;5.40;1.17;;;5.60;99.90;;;;;;5079105;27;22249;-70
2022/01/04 12:43:57;;;;;;;3.03;0.65;;;5.90;99.90;;;;;;5095698;28;20055;-70
2022/01/04 12:46:41;;;;;;;6.32;1.08;;;5.70;99.90;;;;;;5089567;28;20093;-70
2022/01/04 12:49:12;;;;;;;4.50;0.98;;;6.10;99.90;;;;;;5089303;28;20044;-70
2022/01/04 12:51:39;;;;;;;5.25;0.95;;;5.80;99.90;;;;;;5079709;28;20410;-70
2022/01/04 12:54:08;;;;;;;8.00;2.70;;;5.90;99.90;;;;;;5081961;28;20043;-70
2022/01/04 12:57:07;;;;;;;6.72;1.08;;;6.00;99.90;;;;;;5096887;28;20043;-70
2022/01/04 12:59:35;;;;;;;7.10;1.33;;;6.00;99.90;;;;;;5058078;28;20126;-70
2022/01/04 13:02:22;;;;;;;5.90;0.80;;;6.10;99.90;;;;;;5104129;28;20040;-71
2022/01/04 13:04:52;;;;;;;7.75;1.27;;;6.10;99.90;;;;;;5098477;28;20147;-70